This is the latest recevied weather packets stored in our database for station/object SV2LPQ-2. If no packets are shown the sender has not sent any weather packets the latest 10 day(s).
| Time | Temp. | Humidity | Pressure | Rain* | Wind** | Luminosity | Snow |
|---|---|---|---|---|---|---|---|
| 1777242924 | 18.33° C | 43% | 1042.5 hPa | 0 mm | - | - | - |
| 1777242424 | 18.33° C | 43% | 1042.5 hPa | 0 mm | - | - | - |
| 1777241924 | 18.33° C | 43% | 1042.5 hPa | 0 mm | - | - | - |
| 1777241424 | 18.89° C | 42% | 1042.5 hPa | 0 mm | - | - | - |
| 1777240924 | 18.33° C | 44% | 1042.5 hPa | 0 mm | - | - | - |
| 1777240424 | 17.78° C | 46% | 1042.5 hPa | 0 mm | - | - | - |
| 1777239924 | 18.33° C | 46% | 1042.5 hPa | 0 mm | - | - | - |
| 1777239424 | 18.33° C | 46% | 1042.5 hPa | 0 mm | - | - | - |
| 1777238924 | 18.33° C | 47% | 1042.5 hPa | 0 mm | - | - | - |
| 1777238424 | 18.33° C | 48% | 1042.5 hPa | 0 mm | - | - | - |
| 1777237924 | 17.78° C | 50% | 1042.5 hPa | 0 mm | - | - | - |
| 1777237424 | 18.33° C | 49% | 1042.5 hPa | 0 mm | - | - | - |
| 1777236924 | 18.33° C | 48% | 1042.5 hPa | 0 mm | - | - | - |
| 1777236424 | 17.78° C | 50% | 1042.5 hPa | 0 mm | - | - | - |
| 1777235924 | 18.89° C | 47% | 1042.5 hPa | 0 mm | - | - | - |
| 1777235424 | 19.44° C | 45% | 1042.5 hPa | 0 mm | - | - | - |
| 1777234924 | 19.44° C | 45% | 1042.5 hPa | 0 mm | - | - | - |
| 1777234424 | 19.44° C | 45% | 1042.5 hPa | 0 mm | - | - | - |
| 1777233924 | 20° C | 45% | 1042.5 hPa | 0 mm | - | - | - |
| 1777233424 | 20.56° C | 44% | 1042.5 hPa | 0 mm | - | - | - |
| 1777232924 | 20.56° C | 42% | 1042.5 hPa | 0 mm | - | - | - |
| 1777232424 | 21.11° C | 41% | 1042.5 hPa | 0 mm | - | - | - |
| 1777231924 | 21.11° C | 43% | 1042.5 hPa | 0 mm | - | - | - |
| 1777231424 | 20.56° C | 43% | 1042.5 hPa | 0 mm | - | - | - |
| 1777230923 | 21.11° C | 43% | 1042.5 hPa | 0 mm | - | - | - |
* Rain latest hour (hover to see other rain measurements)
** Current wind speed in m/s (hover to see current wind gust speed)